Time;durP1;ratioP1;P1;durP2;ratioP2;P2;SDS_P1;SDS_P2;PMS_P1;PMS_P2;Temp;Humidity;BMP_temperature;BMP_pressure;BME280_temperature;BME280_humidity;BME280_pressure;Samples;Min_cycle;Max_cycle;Signal;HPM_P1;HPM_P2
2022/01/25 00:26:46;;;;;;;;;;;;;;;6.30;65.29;102081.44;5036019;28;19921;-83
2022/01/25 00:29:26;;;;;;;;;;;;;;;6.31;65.31;102076.75;5022091;28;19921;-83
2022/01/25 00:31:56;;;;;;;;;;;;;;;6.27;65.37;102087.47;5033408;28;19921;-84
2022/01/25 00:34:23;;;;;;;;;;;;;;;6.22;65.08;102081.00;5041081;28;20271;-83
2022/01/25 00:36:51;;;;;;;;;;;;;;;6.26;65.78;102084.97;5038444;28;19928;-83
2022/01/25 00:39:19;;;;;;;;;;;;;;;6.37;64.89;102091.53;5020647;28;19921;-82
2022/01/25 00:41:45;;;;;;;;;;;;;;;6.35;65.50;102089.00;5036822;28;19925;-83
2022/01/25 00:44:16;;;;;;;;;;;;;;;6.39;65.48;102084.66;5039017;28;19940;-83
2022/01/25 00:46:43;;;;;;;;;;;;;;;6.43;64.91;102085.00;5020320;28;19933;-83
2022/01/25 00:49:14;;;;;;;;;;;;;;;6.40;65.09;102094.63;5019495;28;20298;-83
2022/01/25 00:54:31;;;;;;;;;;;;;;;6.39;65.18;102087.44;5001268;28;19921;-83
2022/01/25 00:56:59;;;;;;;;;;;;;;;6.45;65.26;102085.63;5029756;28;19921;-83
2022/01/25 00:59:28;;;;;;;;;;;;;;;6.37;65.35;102086.84;5039166;28;19928;-83
2022/01/25 01:01:56;;;;;;;;;;;;;;;6.44;64.72;102089.44;5036971;28;19921;-82
2022/01/25 01:04:23;;;;;;;;;;;;;;;6.33;64.35;102084.81;5024449;28;19925;-83
2022/01/25 01:06:52;;;;;;;;;;;;;;;6.33;65.09;102090.34;5018982;28;19921;-82
2022/01/25 01:09:20;;;;;;;;;;;;;;;6.24;65.54;102087.13;5018258;28;19944;-83
2022/01/25 01:11:55;;;;;;;;;;;;;;;6.25;65.22;102089.63;5023147;28;19985;-82
2022/01/25 01:14:35;;;;;;;;;;;;;;;6.16;66.43;102090.28;5037851;28;19921;-82
2022/01/25 01:31:10;;;;;;;;;;;;;;;6.41;64.95;102073.34;5027103;28;19920;-83
2022/01/25 01:36:59;;;;;;;;;;;;;;;6.36;65.23;102068.53;5024548;28;19921;-82
2022/01/25 01:39:56;;;;;;;;;;;;;;;6.36;64.62;102060.22;5006309;28;20370;-82
2022/01/25 01:42:52;;;;;;;;;;;;;;;6.33;64.88;102062.69;4998395;28;19949;-82
2022/01/25 01:45:35;;;;;;;;;;;;;;;6.21;64.86;102062.72;5031169;28;19921;-81
2022/01/25 01:48:05;;;;;;;;;;;;;;;6.22;65.33;102061.63;5026753;28;19976;-81
2022/01/25 01:50:35;;;;;;;;;;;;;;;6.20;65.02;102066.56;5019333;28;19933;-81
2022/01/25 01:53:03;;;;;;;;;;;;;;;6.20;65.45;102072.09;5018248;28;19934;-81
2022/01/25 01:55:32;;;;;;;;;;;;;;;6.17;65.21;102064.28;5026815;28;19925;-82
2022/01/25 01:57:59;;;;;;;;;;;;;;;6.19;65.37;102067.63;5035254;28;19928;-82
2022/01/25 02:00:32;;;;;;;;;;;;;;;6.17;66.27;102069.81;5017275;28;20378;-83
2022/01/25 02:03:00;;;;;;;;;;;;;;;6.21;66.35;102069.06;5018224;28;19928;-82
2022/01/25 02:05:30;;;;;;;;;;;;;;;6.25;65.82;102067.50;5018856;28;20370;-82
2022/01/25 02:07:57;;;;;;;;;;;;;;;6.19;65.62;102057.41;5032681;28;19925;-82
2022/01/25 02:10:27;;;;;;;;;;;;;;;6.26;66.09;102066.41;5018300;28;19929;-81
2022/01/25 02:12:55;;;;;;;;;;;;;;;6.31;64.97;102068.44;5022665;28;20486;-81
2022/01/25 02:15:25;;;;;;;;;;;;;;;6.30;64.84;102052.94;5030287;28;19925;-81
2022/01/25 02:23:23;;;;;;;;;;;;;;;6.36;64.65;102035.31;5018191;28;19921;-81
2022/01/25 02:25:50;;;;;;;;;;;;;;;6.37;64.57;102036.19;5018278;28;19929;-81
2022/01/25 02:28:18;;;;;;;;;;;;;;;6.34;64.00;102031.13;5019240;28;19921;-81
2022/01/25 02:30:45;;;;;;;;;;;;;;;6.39;64.64;102034.84;5018348;28;19910;-83
2022/01/25 02:33:16;;;;;;;;;;;;;;;6.40;64.17;102033.75;5017619;28;20025;-82
2022/01/25 02:35:45;;;;;;;;;;;;;;;6.44;64.19;102031.31;5017906;28;19932;-81
2022/01/25 02:38:20;;;;;;;;;;;;;;;6.42;64.33;102028.78;5009608;28;19929;-82
2022/01/25 02:40:47;;;;;;;;;;;;;;;6.23;63.95;102033.69;5017570;28;19932;-82
2022/01/25 02:43:17;;;;;;;;;;;;;;;6.35;63.90;102033.66;5017476;28;19927;-81
2022/01/25 02:45:48;;;;;;;;;;;;;;;6.38;64.13;102038.69;5023283;28;19922;-81
2022/01/25 02:48:30;;;;;;;;;;;;;;;6.29;64.64;102042.94;5018300;28;19929;-81
2022/01/25 02:51:00;;;;;;;;;;;;;;;6.40;64.27;102038.44;5017484;28;20063;-81
2022/01/25 02:53:27;;;;;;;;;;;;;;;6.37;64.66;102041.72;5017384;28;19921;-82
2022/01/25 02:55:55;;;;;;;;;;;;;;;6.43;64.08;102037.97;5017641;28;20644;-83
2022/01/25 02:58:22;;;;;;;;;;;;;;;6.40;64.39;102039.28;5018315;28;19936;-83
2022/01/25 03:00:49;;;;;;;;;;;;;;;6.45;64.11;102042.16;5031778;28;19928;-83
2022/01/25 03:03:19;;;;;;;;;;;;;;;6.50;64.00;102031.16;5016735;28;19921;-82
2022/01/25 03:05:46;;;;;;;;;;;;;;;6.44;63.75;102034.09;5017669;28;19932;-83
2022/01/25 03:08:15;;;;;;;;;;;;;;;6.34;63.35;102036.66;5018274;28;20436;-82
2022/01/25 03:10:43;;;;;;;;;;;;;;;6.42;63.78;102036.28;5018254;28;19932;-83
2022/01/25 03:13:15;;;;;;;;;;;;;;;6.37;63.78;102028.72;5022404;28;19925;-83
2022/01/25 03:15:58;;;;;;;;;;;;;;;6.35;63.55;102043.91;5043105;28;20405;-83
2022/01/25 03:18:43;;;;;;;;;;;;;;;6.36;63.08;102043.63;5035533;28;19944;-81
2022/01/25 03:21:35;;;;;;;;;;;;;;;6.36;63.27;102035.31;5026299;28;19921;-81
2022/01/25 03:24:05;;;;;;;;;;;;;;;6.30;64.40;102041.88;5041052;28;19928;-82
2022/01/25 03:26:33;;;;;;;;;;;;;;;6.35;63.75;102039.19;5038172;28;20013;-83
2022/01/25 03:29:02;;;;;;;;;;;;;;;6.37;63.51;102041.72;5024072;28;19921;-83
2022/01/25 03:31:29;;;;;;;;;;;;;;;6.27;63.76;102036.81;5021540;28;19922;-82
2022/01/25 03:33:56;;;;;;;;;;;;;;;6.31;63.58;102035.25;5030515;28;20282;-81
2022/01/25 03:36:23;;;;;;;;;;;;;;;6.25;63.81;102025.16;5040617;28;19921;-82
2022/01/25 03:38:50;;;;;;;;;;;;;;;6.21;64.11;102022.03;5023057;28;20436;-82
2022/01/25 03:41:18;;;;;;;;;;;;;;;6.26;64.38;102026.84;5022740;28;19932;-82
2022/01/25 03:43:53;;;;;;;;;;;;;;;6.25;64.08;102033.47;5020772;28;19921;-83
2022/01/25 03:46:30;;;;;;;;;;;;;;;6.21;64.80;102022.03;5020713;28;19928;-81
2022/01/25 03:51:42;;;;;;;;;;;;;;;6.19;64.25;102023.38;5039687;28;19921;-80
2022/01/25 03:54:09;;;;;;;;;;;;;;;6.22;63.78;102029.25;5037409;28;20323;-81
2022/01/25 03:56:37;;;;;;;;;;;;;;;6.23;64.09;102028.16;5030353;28;19921;-81
2022/01/25 03:59:05;;;;;;;;;;;;;;;6.20;64.67;102028.66;5019038;28;19921;-81
2022/01/25 04:01:32;;;;;;;;;;;;;;;6.26;64.13;102019.38;5019916;28;19929;-81
2022/01/25 04:04:05;;;;;;;;;;;;;;;6.31;64.13;102021.41;5019838;28;20409;-80
2022/01/25 04:06:33;;;;;;;;;;;;;;;6.25;64.13;102017.69;5019578;28;19937;-82
2022/01/25 04:09:01;;;;;;;;;;;;;;;6.20;63.96;102023.13;5019120;28;19989;-80
2022/01/25 04:11:28;;;;;;;;;;;;;;;6.10;63.19;102017.41;5030998;28;20289;-80
2022/01/25 04:13:58;;;;;;;;;;;;;;;6.02;63.89;102018.63;5019970;28;19925;-82
2022/01/25 04:16:29;;;;;;;;;;;;;;;5.94;64.08;102009.84;5021811;28;19983;-81
2022/01/25 04:19:05;;;;;;;;;;;;;;;6.13;64.15;102003.06;5020595;28;20386;-81
2022/01/25 04:24:42;;;;;;;;;;;;;;;6.00;64.00;102012.50;5030913;28;19921;-81
2022/01/25 04:24:56;;;;;;;;;;;;;;;5.98;62.93;102006.38;5019111;28;19921;-80
2022/01/25 04:27:26;;;;;;;;;;;;;;;5.96;63.74;102011.31;5019106;28;20379;-80
2022/01/25 04:29:55;;;;;;;;;;;;;;;6.01;64.02;102007.81;5027304;28;19920;-81
2022/01/25 04:32:31;;;;;;;;;;;;;;;5.97;63.92;102007.47;5040594;28;20020;-81
2022/01/25 04:35:10;;;;;;;;;;;;;;;5.94;63.72;102005.16;5026165;28;19992;-81
2022/01/25 04:49:03;;;;;;;;;;;;;;;5.68;64.65;102010.16;5004802;28;19921;-80
2022/01/25 04:54:19;;;;;;;;;;;;;;;5.62;64.37;102000.06;5029960;28;19922;-81
2022/01/25 04:56:53;;;;;;;;;;;;;;;5.55;65.73;102012.34;5025988;28;19932;-82
2022/01/25 04:59:26;;;;;;;;;;;;;;;5.52;65.54;102004.53;5040190;28;19921;-82
2022/01/25 05:02:04;;;;;;;;;;;;;;;5.56;65.02;102006.56;5034062;28;19925;-81
2022/01/25 05:04:36;;;;;;;;;;;;;;;5.62;65.07;102002.00;5030620;28;19922;-81
2022/01/25 05:07:14;;;;;;;;;;;;;;;5.62;64.83;102002.84;5020030;28;19921;-82
2022/01/25 05:09:43;;;;;;;;;;;;;;;5.55;65.43;102001.31;5020301;28;19928;-81
2022/01/25 05:12:11;;;;;;;;;;;;;;;5.62;65.16;102007.53;5018611;28;19932;-81
2022/01/25 05:14:55;;;;;;;;;;;;;;;5.62;65.58;102002.84;5024702;28;19928;-80
2022/01/25 05:17:32;;;;;;;;;;;;;;;5.68;65.94;101996.31;5034644;28;19944;-81
2022/01/25 05:22:40;;;;;;;;;;;;;;;5.61;65.31;102009.47;5039342;28;20354;-81
2022/01/25 05:25:08;;;;;;;;;;;;;;;5.79;65.37;102007.59;5030944;28;19928;-81
2022/01/25 05:27:35;;;;;;;;;;;;;;;5.84;65.14;102004.97;5031145;28;19928;-80
2022/01/25 05:30:04;;;;;;;;;;;;;;;5.90;65.19;102003.97;5018928;28;20327;-81
2022/01/25 05:32:34;;;;;;;;;;;;;;;5.87;64.60;101998.94;5018876;28;20291;-81
2022/01/25 05:35:01;;;;;;;;;;;;;;;5.86;65.31;102003.63;5018980;28;20276;-81
2022/01/25 05:37:41;;;;;;;;;;;;;;;5.86;65.84;101997.25;5025389;28;19928;-82
2022/01/25 05:40:13;;;;;;;;;;;;;;;5.89;65.72;102013.34;5016382;28;19921;-83
2022/01/25 05:43:51;;;;;;;;;;;;;;;5.87;65.12;102010.00;5019117;28;20714;-83
2022/01/25 05:45:55;;;;;;;;;;;;;;;5.96;65.38;102010.47;5019664;28;19925;-83
2022/01/25 05:48:24;;;;;;;;;;;;;;;5.97;64.61;102001.09;5024846;28;19928;-84
2022/01/25 05:50:55;;;;;;;;;;;;;;;5.92;64.19;102012.00;5018628;28;19925;-83
2022/01/25 05:53:22;;;;;;;;;;;;;;;6.03;64.47;101998.19;5018036;28;19922;-83
2022/01/25 05:55:49;;;;;;;;;;;;;;;6.00;64.85;101998.66;5016776;28;19923;-82
2022/01/25 05:58:16;;;;;;;;;;;;;;;6.04;64.32;101996.25;5016482;28;19921;-83
2022/01/25 06:00:43;;;;;;;;;;;;;;;6.05;64.56;101997.94;5020280;28;19932;-83
2022/01/25 06:03:10;;;;;;;;;;;;;;;5.99;63.68;101996.16;5018390;28;19925;-83
2022/01/25 06:05:38;;;;;;;;;;;;;;;6.01;64.00;101994.81;5020130;28;19925;-83
2022/01/25 06:08:06;;;;;;;;;;;;;;;6.01;64.16;101991.22;5018877;28;19929;-83
2022/01/25 06:10:33;;;;;;;;;;;;;;;5.87;63.90;101987.88;5031717;28;19928;-82
2022/01/25 06:13:00;;;;;;;;;;;;;;;5.91;63.92;101994.59;5017850;28;19932;-83
2022/01/25 06:15:27;;;;;;;;;;;;;;;5.93;63.91;101991.59;5028326;28;20331;-83
2022/01/25 06:17:55;;;;;;;;;;;;;;;5.91;64.16;101997.34;5017207;28;19933;-82
2022/01/25 06:20:22;;;;;;;;;;;;;;;5.92;63.39;101993.47;5018244;28;20375;-83
2022/01/25 06:22:50;;;;;;;;;;;;;;;5.87;63.96;101996.16;5015274;28;20354;-83
2022/01/25 06:25:18;;;;;;;;;;;;;;;5.83;64.57;101989.44;5033303;28;19924;-83
2022/01/25 06:27:45;;;;;;;;;;;;;;;5.74;64.41;101993.69;5020328;28;19922;-84
2022/01/25 06:30:13;;;;;;;;;;;;;;;5.66;64.80;102000.44;5016966;28;19922;-83
2022/01/25 06:32:40;;;;;;;;;;;;;;;5.67;65.11;101997.44;5018655;28;19925;-86
2022/01/25 06:35:08;;;;;;;;;;;;;;;5.63;65.04;101999.00;5030407;28;19925;-86
2022/01/25 06:37:35;;;;;;;;;;;;;;;5.69;64.61;102009.09;5020206;28;19921;-85
2022/01/25 06:40:07;;;;;;;;;;;;;;;5.66;65.30;101998.50;5024785;28;19922;-86
2022/01/25 06:42:35;;;;;;;;;;;;;;;5.69;65.05;101995.25;5021214;28;19925;-85
2022/01/25 06:45:06;;;;;;;;;;;;;;;5.66;64.79;102003.19;5022625;28;19993;-86
2022/01/25 06:47:34;;;;;;;;;;;;;;;5.70;64.71;101999.69;5030442;28;20009;-85
2022/01/25 06:50:00;;;;;;;;;;;;;;;5.76;64.43;102006.19;5025892;28;20386;-84
2022/01/25 06:52:27;;;;;;;;;;;;;;;5.78;64.09;102014.22;5024566;28;19925;-85
2022/01/25 06:54:54;;;;;;;;;;;;;;;5.76;65.14;102006.19;5030576;28;19925;-85
2022/01/25 06:57:23;;;;;;;;;;;;;;;5.75;64.36;102015.53;5023337;28;20286;-85
2022/01/25 06:59:50;;;;;;;;;;;;;;;5.81;64.17;102017.31;5028888;28;19916;-85
2022/01/25 07:02:18;;;;;;;;;;;;;;;5.77;63.88;102018.91;5022353;28;19921;-85
2022/01/25 07:04:45;;;;;;;;;;;;;;;5.89;63.55;102021.66;5031563;28;19921;-86
2022/01/25 07:07:12;;;;;;;;;;;;;;;5.77;63.43;102031.88;5033174;28;19922;-82
2022/01/25 07:09:39;;;;;;;;;;;;;;;5.80;64.14;102032.25;5044203;28;19921;-83
2022/01/25 07:12:07;;;;;;;;;;;;;;;5.79;64.14;102027.78;5033380;28;19932;-82
2022/01/25 07:14:35;;;;;;;;;;;;;;;5.82;63.80;102023.72;5031643;28;19929;-82
2022/01/25 07:17:02;;;;;;;;;;;;;;;5.78;63.21;102025.28;5027739;28;19922;-82
2022/01/25 07:19:29;;;;;;;;;;;;;;;5.76;64.35;102025.53;5038631;28;19928;-81
2022/01/25 07:21:57;;;;;;;;;;;;;;;5.75;63.66;102028.53;5028291;28;19921;-82
2022/01/25 07:24:24;;;;;;;;;;;;;;;5.74;64.34;102032.41;5025623;28;19921;-83
2022/01/25 07:26:51;;;;;;;;;;;;;;;5.67;63.79;102029.78;5036275;28;19921;-81
2022/01/25 07:29:20;;;;;;;;;;;;;;;5.68;64.25;102032.25;5032958;28;19944;-85
2022/01/25 07:31:49;;;;;;;;;;;;;;;5.61;64.71;102033.50;5016732;28;19921;-84
2022/01/25 07:34:16;;;;;;;;;;;;;;;4.55;68.15;102030.66;5012850;28;19925;-75
2022/01/25 07:36:43;;;;;;;;;;;;;;;5.26;65.89;102031.59;5022346;28;19925;-82
2022/01/25 07:39:10;;;;;;;;;;;;;;;5.54;65.19;102028.06;5028531;28;19921;-82
2022/01/25 07:41:37;;;;;;;;;;;;;;;5.59;64.32;102019.91;5026722;28;19925;-81
2022/01/25 07:44:05;;;;;;;;;;;;;;;5.63;63.89;102012.81;5020936;28;19921;-83
2022/01/25 07:46:34;;;;;;;;;;;;;;;5.61;64.34;102014.97;5020825;28;19922;-82
2022/01/25 07:49:03;;;;;;;;;;;;;;;5.49;64.36;102014.16;5015220;28;19925;-82
2022/01/25 07:51:31;;;;;;;;;;;;;;;5.33;64.59;102018.47;5019208;28;20327;-82
2022/01/25 07:53:59;;;;;;;;;;;;;;;5.44;64.57;102019.59;5035137;28;19932;-83
2022/01/25 07:56:26;;;;;;;;;;;;;;;5.59;64.99;102013.56;5016676;28;20366;-82
2022/01/25 07:58:54;;;;;;;;;;;;;;;5.54;63.92;102008.72;5024252;28;19921;-83
2022/01/25 08:01:21;;;;;;;;;;;;;;;5.42;65.02;102014.28;5019479;28;19921;-82
2022/01/25 08:03:48;;;;;;;;;;;;;;;5.39;64.95;102019.44;5014692;28;19933;-82
2022/01/25 08:06:16;;;;;;;;;;;;;;;5.39;64.60;102013.94;5017773;28;19926;-81
2022/01/25 08:08:44;;;;;;;;;;;;;;;5.37;64.63;102022.44;5019824;28;19926;-82
2022/01/25 08:11:11;;;;;;;;;;;;;;;5.41;64.79;102017.28;5030083;28;19921;-81
2022/01/25 08:13:45;;;;;;;;;;;;;;;5.65;64.29;102013.41;5022736;28;19921;-81
2022/01/25 08:16:12;;;;;;;;;;;;;;;5.66;64.10;102014.25;5002517;28;19925;-82
2022/01/25 08:18:39;;;;;;;;;;;;;;;5.73;63.73;102026.00;5031595;28;19926;-81
2022/01/25 08:21:06;;;;;;;;;;;;;;;5.66;63.75;102028.06;5020273;28;19929;-81
2022/01/25 08:23:34;;;;;;;;;;;;;;;5.73;63.48;102022.41;5019224;28;19949;-82
2022/01/25 08:26:01;;;;;;;;;;;;;;;5.75;64.07;102017.47;5018439;28;19928;-83
2022/01/25 08:28:30;;;;;;;;;;;;;;;5.75;63.78;102014.72;5017678;28;19921;-83
2022/01/25 08:30:58;;;;;;;;;;;;;;;5.87;63.67;102015.53;5016617;28;19932;-82
2022/01/25 08:33:25;;;;;;;;;;;;;;;5.85;63.62;102029.59;5025405;28;19925;-82
2022/01/25 08:35:52;;;;;;;;;;;;;;;5.90;63.00;102028.88;5030878;28;20298;-81
2022/01/25 08:38:19;;;;;;;;;;;;;;;5.93;62.83;102033.91;5023037;28;19925;-82
2022/01/25 08:40:47;;;;;;;;;;;;;;;5.84;63.26;102021.56;5015309;28;19925;-82
2022/01/25 08:43:16;;;;;;;;;;;;;;;5.67;63.57;102027.00;5018446;28;19921;-81
2022/01/25 08:45:43;;;;;;;;;;;;;;;5.59;64.20;102030.97;5024983;28;19921;-81
2022/01/25 08:48:10;;;;;;;;;;;;;;;5.55;64.49;102021.47;5017347;28;20351;-81
2022/01/25 08:50:37;;;;;;;;;;;;;;;5.47;64.54;102027.38;5016962;28;19926;-83
2022/01/25 08:53:07;;;;;;;;;;;;;;;5.59;64.48;102030.13;5018458;28;20266;-83
2022/01/25 08:55:37;;;;;;;;;;;;;;;5.56;64.83;102031.44;5018781;28;19944;-81
2022/01/25 08:58:05;;;;;;;;;;;;;;;5.56;64.59;102036.13;5016136;28;19909;-82
2022/01/25 09:00:33;;;;;;;;;;;;;;;5.69;64.79;102036.72;5019104;28;19932;-82
2022/01/25 09:03:00;;;;;;;;;;;;;;;5.72;64.00;102045.63;5017348;28;19929;-83
2022/01/25 09:05:27;;;;;;;;;;;;;;;5.75;64.36;102045.94;5020180;28;19929;-83
2022/01/25 09:07:56;;;;;;;;;;;;;;;5.75;64.02;102045.13;5019812;28;19925;-85
2022/01/25 09:10:24;;;;;;;;;;;;;;;5.76;64.11;102041.28;5029024;28;19928;-85
2022/01/25 09:12:50;;;;;;;;;;;;;;;5.89;63.62;102046.53;5022896;28;19921;-85
2022/01/25 09:15:20;;;;;;;;;;;;;;;5.90;63.16;102043.53;5022371;28;19925;-85
2022/01/25 09:17:48;;;;;;;;;;;;;;;5.80;63.70;102051.59;5021576;28;19921;-84
2022/01/25 09:20:15;;;;;;;;;;;;;;;5.76;63.78;102046.81;5024330;28;19925;-86
2022/01/25 09:22:42;;;;;;;;;;;;;;;5.88;63.69;102042.09;5019951;28;19922;-84
2022/01/25 09:25:12;;;;;;;;;;;;;;;5.94;63.38;102049.41;5020656;28;19921;-84
2022/01/25 09:27:39;;;;;;;;;;;;;;;5.84;63.58;102044.50;5022673;28;20033;-85
2022/01/25 09:30:06;;;;;;;;;;;;;;;5.87;63.82;102046.78;5021673;28;19922;-85
2022/01/25 09:32:34;;;;;;;;;;;;;;;5.92;62.96;102047.97;5023234;28;19921;-86
2022/01/25 09:35:02;;;;;;;;;;;;;;;5.74;64.02;102051.75;5029357;28;19929;-82
2022/01/25 09:37:29;;;;;;;;;;;;;;;5.79;63.60;102049.09;5029753;28;19921;-80
2022/01/25 09:39:59;;;;;;;;;;;;;;;5.73;63.55;102047.28;5027067;28;20299;-82
2022/01/25 09:42:28;;;;;;;;;;;;;;;5.75;63.26;102059.78;5017728;28;19921;-82
2022/01/25 09:44:56;;;;;;;;;;;;;;;5.49;64.40;102050.91;5019749;28;19921;-81
2022/01/25 09:47:23;;;;;;;;;;;;;;;5.70;64.28;102049.44;5030059;28;19932;-82
2022/01/25 09:49:52;;;;;;;;;;;;;;;5.80;63.61;102054.38;5017732;28;19926;-82
2022/01/25 09:52:19;;;;;;;;;;;;;;;5.75;64.05;102059.78;5015810;28;19933;-81
2022/01/25 09:54:53;;;;;;;;;;;;;;;5.86;63.71;102064.47;5016757;28;19937;-82
2022/01/25 09:57:20;;;;;;;;;;;;;;;6.00;63.56;102061.44;5017804;28;19928;-82
2022/01/25 09:59:47;;;;;;;;;;;;;;;6.10;62.93;102065.25;5017567;28;19925;-82
2022/01/25 10:02:33;;;;;;;;;;;;;;;6.05;62.77;102067.09;5014122;28;19922;-83
2022/01/25 10:05:15;;;;;;;;;;;;;;;6.05;63.10;102067.09;5007368;28;19936;-86
2022/01/25 10:07:42;;;;;;;;;;;;;;;6.14;62.87;102067.56;5017129;28;19921;-81
2022/01/25 10:10:09;;;;;;;;;;;;;;;6.02;62.37;102073.09;5017954;28;19929;-81
2022/01/25 10:12:36;;;;;;;;;;;;;;;6.16;62.79;102080.03;5017910;28;19952;-82
2022/01/25 10:15:10;;;;;;;;;;;;;;;6.16;62.88;102080.03;5016963;28;20374;-83
2022/01/25 10:17:41;;;;;;;;;;;;;;;6.21;62.88;102084.84;5021596;28;19928;-81
2022/01/25 10:20:24;;;;;;;;;;;;;;;6.04;62.24;102091.13;5023904;28;19925;-83
2022/01/25 10:22:51;;;;;;;;;;;;;;;5.98;62.27;102083.81;5022482;28;19932;-83
2022/01/25 10:25:29;;;;;;;;;;;;;;;6.05;62.81;102090.06;5014454;28;19921;-83
2022/01/25 10:28:10;;;;;;;;;;;;;;;6.11;62.05;102088.25;5010215;28;19921;-83
2022/01/25 10:30:40;;;;;;;;;;;;;;;6.17;62.71;102086.41;5035529;28;19921;-83
2022/01/25 10:33:18;;;;;;;;;;;;;;;6.02;62.82;102082.25;5025348;28;20298;-83
2022/01/25 10:35:47;;;;;;;;;;;;;;;5.98;62.70;102086.56;5017138;28;20302;-83
2022/01/25 10:38:18;;;;;;;;;;;;;;;6.02;62.74;102085.00;5015705;28;19921;-82
2022/01/25 10:40:53;;;;;;;;;;;;;;;6.08;62.82;102092.31;5018940;28;19921;-82
2022/01/25 10:43:22;;;;;;;;;;;;;;;5.76;62.91;102091.06;5015179;28;19921;-82
2022/01/25 10:46:04;;;;;;;;;;;;;;;5.97;62.73;102093.19;5015013;28;20409;-82
2022/01/25 10:48:31;;;;;;;;;;;;;;;6.03;63.42;102091.41;5017086;28;19987;-82
2022/01/25 10:51:05;;;;;;;;;;;;;;;6.14;62.44;102093.28;5017344;28;19933;-82
2022/01/25 10:53:34;;;;;;;;;;;;;;;6.09;63.04;102091.25;5018394;28;19928;-83
2022/01/25 10:56:02;;;;;;;;;;;;;;;5.97;62.78;102084.91;5014827;28;19933;-84
2022/01/25 10:58:29;;;;;;;;;;;;;;;6.04;63.22;102079.22;5019241;28;19993;-82
2022/01/25 11:00:58;;;;;;;;;;;;;;;6.09;62.94;102082.13;5021053;28;20382;-81
2022/01/25 11:03:26;;;;;;;;;;;;;;;6.13;63.04;102079.69;5018759;28;19935;-81
2022/01/25 11:05:53;;;;;;;;;;;;;;;6.10;62.99;102075.50;5017720;28;19929;-82
2022/01/25 11:08:23;;;;;;;;;;;;;;;6.25;63.19;102077.72;5029779;28;19933;-84
2022/01/25 11:10:54;;;;;;;;;;;;;;;6.21;63.06;102073.78;5029908;28;19937;-82
2022/01/25 11:13:36;;;;;;;;;;;;;;;6.21;62.97;102076.53;5028284;28;19925;-82
2022/01/25 11:16:05;;;;;;;;;;;;;;;6.10;62.63;102070.78;5022730;28;19921;-82
2022/01/25 11:18:32;;;;;;;;;;;;;;;5.93;62.24;102071.78;5016574;28;19925;-84
2022/01/25 11:20:59;;;;;;;;;;;;;;;5.88;62.71;102072.53;5016601;28;19932;-82
2022/01/25 11:23:33;;;;;;;;;;;;;;;5.73;63.26;102069.41;5016680;28;19921;-81
2022/01/25 11:26:04;;;;;;;;;;;;;;;5.60;63.46;102071.34;5018353;28;19921;-80
2022/01/25 11:28:32;;;;;;;;;;;;;;;5.59;63.61;102061.38;5016485;28;19928;-80
2022/01/25 11:31:00;;;;;;;;;;;;;;;5.73;62.94;102061.09;5016936;28;19921;-80
2022/01/25 11:33:28;;;;;;;;;;;;;;;5.70;63.04;102060.50;5018501;28;19932;-80
2022/01/25 11:35:55;;;;;;;;;;;;;;;5.55;64.48;102054.66;5018599;28;19925;-80
2022/01/25 11:38:31;;;;;;;;;;;;;;;5.51;64.17;102053.44;5018886;28;19937;-80
2022/01/25 11:40:58;;;;;;;;;;;;;;;5.66;63.30;102053.78;5017442;28;20297;-80
2022/01/25 11:43:26;;;;;;;;;;;;;;;5.63;64.11;102058.97;5016730;28;19925;-80
2022/01/25 11:46:01;;;;;;;;;;;;;;;5.68;63.68;102054.38;5018733;28;19925;-80
2022/01/25 11:48:35;;;;;;;;;;;;;;;5.72;63.20;102059.44;5023589;28;19921;-80
2022/01/25 11:51:07;;;;;;;;;;;;;;;5.78;63.37;102052.94;5017961;28;19925;-80
2022/01/25 11:53:40;;;;;;;;;;;;;;;5.68;63.68;102056.31;5017261;28;19925;-80
2022/01/25 11:56:11;;;;;;;;;;;;;;;5.67;63.63;102049.94;5020352;28;19928;-81
2022/01/25 11:58:39;;;;;;;;;;;;;;;5.84;63.20;102046.44;5020889;28;19925;-81
2022/01/25 12:01:07;;;;;;;;;;;;;;;5.96;63.12;102055.56;5014368;28;19925;-81
2022/01/25 12:03:37;;;;;;;;;;;;;;;6.04;62.19;102049.63;5017940;28;19928;-81
2022/01/25 12:06:07;;;;;;;;;;;;;;;6.15;61.79;102047.09;5016736;28;19930;-80
2022/01/25 12:08:49;;;;;;;;;;;;;;;6.15;61.62;102049.84;5019255;28;19926;-79
2022/01/25 12:11:29;;;;;;;;;;;;;;;6.07;61.86;102049.16;5024847;28;19921;-81
2022/01/25 12:14:17;;;;;;;;;;;;;;;6.26;61.32;102043.47;5019791;28;19940;-81
2022/01/25 12:16:45;;;;;;;;;;;;;;;6.16;60.95;102040.47;5020283;28;19929;-81
2022/01/25 12:19:14;;;;;;;;;;;;;;;6.15;60.72;102036.03;5019698;28;19933;-80
2022/01/25 12:21:54;;;;;;;;;;;;;;;6.08;61.20;102033.41;5018023;28;19932;-79
2022/01/25 12:24:29;;;;;;;;;;;;;;;6.04;61.25;102030.28;5018188;28;19926;-82
2022/01/25 12:27:01;;;;;;;;;;;;;;;6.02;60.87;102035.22;5033299;28;20374;-81
2022/01/25 12:29:36;;;;;;;;;;;;;;;5.70;61.87;102032.88;5025544;28;19921;-82
2022/01/25 12:32:25;;;;;;;;;;;;;;;5.87;61.57;102029.34;5027465;28;19947;-82
2022/01/25 12:35:02;;;;;;;;;;;;;;;5.80;61.96;102031.41;5022012;28;19921;-82
2022/01/25 12:37:44;;;;;;;;;;;;;;;5.91;61.62;102022.25;5031187;28;19921;-81
2022/01/25 12:40:29;;;;;;;;;;;;;;;5.88;61.53;102025.50;5017242;28;19921;-82
2022/01/25 12:42:57;;;;;;;;;;;;;;;5.93;60.39;102019.25;5020383;28;19921;-83
2022/01/25 12:45:25;;;;;;;;;;;;;;;5.89;61.56;102010.59;5025268;28;19925;-84
2022/01/25 12:47:52;;;;;;;;;;;;;;;5.88;61.37;102018.06;5034565;28;19932;-84
2022/01/25 12:50:19;;;;;;;;;;;;;;;5.92;60.92;102012.84;5017409;28;20001;-81
2022/01/25 12:52:47;;;;;;;;;;;;;;;5.95;60.66;102009.63;5021815;28;19925;-82
2022/01/25 12:55:14;;;;;;;;;;;;;;;6.07;59.98;102013.22;5021175;28;19928;-82
2022/01/25 12:57:47;;;;;;;;;;;;;;;6.06;60.34;102007.91;5023777;28;19940;-82
2022/01/25 13:00:14;;;;;;;;;;;;;;;6.14;60.46;102015.00;5018175;28;19925;-82
2022/01/25 13:03:18;;;;;;;13.20;7.35;;;;;;;6.25;60.06;102014.09;5142671;27;20553;-65
2022/01/25 13:05:50;;;;;;;14.00;8.40;;;;;;;6.30;59.85;102008.66;5108009;28;20062;-65
2022/01/25 13:08:20;;;;;;;13.38;9.00;;;;;;;6.33;59.70;101996.25;5106645;28;20044;-65
2022/01/25 13:10:54;;;;;;;14.05;8.13;;;;;;;6.40;59.60;101992.22;5122463;28;20051;-65
2022/01/25 13:13:28;;;;;;;15.45;8.85;;;;;;;6.50;60.08;102002.66;5113295;27;20070;-65
2022/01/25 13:16:00;;;;;;;13.90;7.85;;;;;;;6.49;59.36;101992.69;5106688;28;20056;-65
2022/01/25 13:18:32;;;;;;;15.25;9.40;;;;;;;6.62;59.45;101995.13;5106270;28;20125;-65
2022/01/25 13:21:05;;;;;;;12.50;8.07;;;;;;;6.66;59.01;101993.53;5106967;28;20066;-65
2022/01/25 13:23:33;;;;;;;14.60;8.82;;;;;;;6.69;59.00;101989.41;5110966;28;20051;-65
2022/01/25 13:26:11;;;;;;;13.63;9.23;;;;;;;6.74;58.75;101992.28;5114516;28;20056;-65
2022/01/25 13:28:53;;;;;;;13.55;8.50;;;;;;;6.85;58.30;101987.75;5106952;28;20086;-65
2022/01/25 13:31:23;;;;;;;13.85;8.77;;;;;;;6.81;58.93;101984.63;5103731;28;20055;-65
2022/01/25 13:33:54;;;;;;;15.05;9.38;;;;;;;6.87;58.92;101986.41;5103921;28;20051;-65
2022/01/25 13:36:24;;;;;;;14.40;8.90;;;;;;;6.58;59.60;101985.63;5107708;28;20052;-66
2022/01/25 13:38:52;;;;;;;15.80;9.02;;;;;;;6.83;58.55;101988.00;5105904;28;20059;-65
2022/01/25 13:41:26;;;;;;;14.52;8.80;;;;;;;6.81;58.53;101987.41;5106245;28;20052;-65
2022/01/25 13:46:42;;;;;;;11.98;7.45;;;;;;;6.81;57.84;101987.41;5107084;28;20090;-65
2022/01/25 13:49:14;;;;;;;14.85;8.30;;;;;;;6.77;57.52;101986.22;5103083;28;20543;-65
2022/01/25 13:51:43;;;;;;;13.00;8.65;;;;;;;6.69;58.04;101983.88;5107021;28;20405;-65
2022/01/25 13:54:14;;;;;;;13.60;7.53;;;;;;;6.47;58.47;101973.56;5104705;28;20077;-65
2022/01/25 13:56:42;;;;;;;12.80;8.18;;;;;;;6.60;58.23;101975.16;5106697;28;20515;-65
2022/01/25 13:59:11;;;;;;;11.65;7.30;;;;;;;6.67;57.26;101970.28;5089173;28;20357;-65
2022/01/25 14:01:41;;;;;;;11.20;7.10;;;;;;;6.67;57.74;101972.22;5104692;28;20079;-65
2022/01/25 14:04:10;;;;;;;11.68;7.90;;;;;;;6.73;57.71;101967.59;5104576;28;20055;-65
2022/01/25 14:06:41;;;;;;;11.13;7.23;;;;;;;6.75;57.46;101974.56;5106744;28;20059;-65
2022/01/25 14:09:13;;;;;;;11.20;7.38;;;;;;;6.81;57.49;101969.97;5107302;28;20481;-65